sensor_id;sensor_type;location;lat;lon;timestamp;temperature;humidity
4103;DHT22;2065;49.790;9.620;2022-12-24T00:00:31;14.30;64.30
4103;DHT22;2065;49.790;9.620;2022-12-24T00:02:58;14.30;63.80
4103;DHT22;2065;49.790;9.620;2022-12-24T00:05:26;14.20;63.90
4103;DHT22;2065;49.790;9.620;2022-12-24T00:07:53;14.10;63.70
4103;DHT22;2065;49.790;9.620;2022-12-24T00:10:20;14.20;63.00
4103;DHT22;2065;49.790;9.620;2022-12-24T00:12:47;14.00;62.80
4103;DHT22;2065;49.790;9.620;2022-12-24T00:15:14;14.00;63.30
4103;DHT22;2065;49.790;9.620;2022-12-24T00:17:41;13.90;63.80
4103;DHT22;2065;49.790;9.620;2022-12-24T00:20:09;14.00;63.90
4103;DHT22;2065;49.790;9.620;2022-12-24T00:22:37;14.00;63.10
4103;DHT22;2065;49.790;9.620;2022-12-24T00:25:05;14.00;63.10
4103;DHT22;2065;49.790;9.620;2022-12-24T00:27:32;13.90;63.60
4103;DHT22;2065;49.790;9.620;2022-12-24T00:29:59;14.10;63.20
4103;DHT22;2065;49.790;9.620;2022-12-24T00:32:26;14.10;62.00
4103;DHT22;2065;49.790;9.620;2022-12-24T00:34:53;13.90;61.80
4103;DHT22;2065;49.790;9.620;2022-12-24T00:37:20;13.70;62.70
4103;DHT22;2065;49.790;9.620;2022-12-24T00:39:48;13.80;61.90
4103;DHT22;2065;49.790;9.620;2022-12-24T00:42:15;13.70;62.80
4103;DHT22;2065;49.790;9.620;2022-12-24T00:44:42;13.70;62.20
4103;DHT22;2065;49.790;9.620;2022-12-24T00:47:09;13.80;62.20
4103;DHT22;2065;49.790;9.620;2022-12-24T00:49:36;13.90;61.30
4103;DHT22;2065;49.790;9.620;2022-12-24T00:52:03;13.70;60.90
4103;DHT22;2065;49.790;9.620;2022-12-24T00:54:30;13.90;61.50
4103;DHT22;2065;49.790;9.620;2022-12-24T00:56:58;14.00;61.10
4103;DHT22;2065;49.790;9.620;2022-12-24T00:59:25;14.10;60.60
4103;DHT22;2065;49.790;9.620;2022-12-24T01:01:52;13.90;60.90
4103;DHT22;2065;49.790;9.620;2022-12-24T01:04:19;13.90;60.10
4103;DHT22;2065;49.790;9.620;2022-12-24T01:07:03;13.80;60.20
4103;DHT22;2065;49.790;9.620;2022-12-24T01:09:30;13.90;60.80
4103;DHT22;2065;49.790;9.620;2022-12-24T01:11:59;13.70;59.70
4103;DHT22;2065;49.790;9.620;2022-12-24T01:14:26;13.60;60.30
4103;DHT22;2065;49.790;9.620;2022-12-24T01:16:53;13.60;59.70
4103;DHT22;2065;49.790;9.620;2022-12-24T01:19:20;13.50;59.90
4103;DHT22;2065;49.790;9.620;2022-12-24T01:21:46;13.60;59.40
4103;DHT22;2065;49.790;9.620;2022-12-24T01:24:14;13.70;60.10
4103;DHT22;2065;49.790;9.620;2022-12-24T01:26:41;13.80;59.20
4103;DHT22;2065;49.790;9.620;2022-12-24T01:29:10;13.90;59.00
4103;DHT22;2065;49.790;9.620;2022-12-24T01:31:37;14.00;59.90
4103;DHT22;2065;49.790;9.620;2022-12-24T01:34:04;13.80;58.60
4103;DHT22;2065;49.790;9.620;2022-12-24T01:36:31;13.70;59.10
4103;DHT22;2065;49.790;9.620;2022-12-24T01:38:58;13.70;58.60
4103;DHT22;2065;49.790;9.620;2022-12-24T01:41:25;13.60;58.90
4103;DHT22;2065;49.790;9.620;2022-12-24T01:44:19;13.50;58.30
4103;DHT22;2065;49.790;9.620;2022-12-24T01:46:47;13.50;58.50
4103;DHT22;2065;49.790;9.620;2022-12-24T01:49:15;13.60;58.30
4103;DHT22;2065;49.790;9.620;2022-12-24T01:51:45;13.60;58.80
4103;DHT22;2065;49.790;9.620;2022-12-24T01:54:16;13.60;58.10
4103;DHT22;2065;49.790;9.620;2022-12-24T01:56:46;13.60;58.40
4103;DHT22;2065;49.790;9.620;2022-12-24T01:59:15;13.60;59.00
4103;DHT22;2065;49.790;9.620;2022-12-24T02:01:45;13.60;58.70
4103;DHT22;2065;49.790;9.620;2022-12-24T02:04:16;13.60;58.90
4103;DHT22;2065;49.790;9.620;2022-12-24T02:06:45;13.60;60.00
4103;DHT22;2065;49.790;9.620;2022-12-24T02:09:12;13.50;59.30
4103;DHT22;2065;49.790;9.620;2022-12-24T02:11:40;13.60;59.70
4103;DHT22;2065;49.790;9.620;2022-12-24T02:14:10;13.90;59.40
4103;DHT22;2065;49.790;9.620;2022-12-24T02:16:42;14.10;59.00
4103;DHT22;2065;49.790;9.620;2022-12-24T02:22:18;13.70;58.70
4103;DHT22;2065;49.790;9.620;2022-12-24T02:25:15;13.90;58.70
4103;DHT22;2065;49.790;9.620;2022-12-24T02:27:55;13.90;58.50
4103;DHT22;2065;49.790;9.620;2022-12-24T02:30:28;13.90;58.30
4103;DHT22;2065;49.790;9.620;2022-12-24T02:33:10;13.80;58.20
4103;DHT22;2065;49.790;9.620;2022-12-24T02:35:46;13.90;58.60
4103;DHT22;2065;49.790;9.620;2022-12-24T02:38:18;13.90;58.50
4103;DHT22;2065;49.790;9.620;2022-12-24T02:40:49;14.00;58.80
4103;DHT22;2065;49.790;9.620;2022-12-24T02:43:20;14.00;58.60
4103;DHT22;2065;49.790;9.620;2022-12-24T02:45:53;14.00;58.50
4103;DHT22;2065;49.790;9.620;2022-12-24T02:48:22;14.20;58.20
4103;DHT22;2065;49.790;9.620;2022-12-24T02:50:54;14.10;58.50
4103;DHT22;2065;49.790;9.620;2022-12-24T02:53:21;14.20;58.20
4103;DHT22;2065;49.790;9.620;2022-12-24T02:56:01;14.10;57.90
4103;DHT22;2065;49.790;9.620;2022-12-24T02:58:37;14.00;57.90
4103;DHT22;2065;49.790;9.620;2022-12-24T03:01:14;14.10;58.20
4103;DHT22;2065;49.790;9.620;2022-12-24T03:03:53;14.10;58.20
4103;DHT22;2065;49.790;9.620;2022-12-24T03:06:31;13.90;58.60
4103;DHT22;2065;49.790;9.620;2022-12-24T03:09:02;13.90;58.00
4103;DHT22;2065;49.790;9.620;2022-12-24T03:11:32;13.90;58.20
4103;DHT22;2065;49.790;9.620;2022-12-24T03:14:01;14.00;58.40
4103;DHT22;2065;49.790;9.620;2022-12-24T03:16:30;14.10;57.80
4103;DHT22;2065;49.790;9.620;2022-12-24T03:18:57;14.00;58.30
4103;DHT22;2065;49.790;9.620;2022-12-24T03:21:28;14.20;58.00
4103;DHT22;2065;49.790;9.620;2022-12-24T03:23:55;14.10;58.40
4103;DHT22;2065;49.790;9.620;2022-12-24T03:26:23;13.90;58.50
4103;DHT22;2065;49.790;9.620;2022-12-24T03:28:51;13.90;58.20
4103;DHT22;2065;49.790;9.620;2022-12-24T03:31:18;14.10;58.10
4103;DHT22;2065;49.790;9.620;2022-12-24T03:33:47;14.00;57.60
4103;DHT22;2065;49.790;9.620;2022-12-24T03:36:14;14.10;58.00
4103;DHT22;2065;49.790;9.620;2022-12-24T03:38:42;14.30;57.60
4103;DHT22;2065;49.790;9.620;2022-12-24T03:41:09;14.20;57.70
4103;DHT22;2065;49.790;9.620;2022-12-24T03:43:36;14.00;57.50
4103;DHT22;2065;49.790;9.620;2022-12-24T03:46:05;14.10;57.80
4103;DHT22;2065;49.790;9.620;2022-12-24T03:48:32;14.10;57.80
4103;DHT22;2065;49.790;9.620;2022-12-24T03:51:02;14.10;57.90
4103;DHT22;2065;49.790;9.620;2022-12-24T03:53:29;14.00;57.90
4103;DHT22;2065;49.790;9.620;2022-12-24T03:55:56;14.00;58.00
4103;DHT22;2065;49.790;9.620;2022-12-24T03:58:23;14.00;58.50
4103;DHT22;2065;49.790;9.620;2022-12-24T04:00:51;14.10;57.90
4103;DHT22;2065;49.790;9.620;2022-12-24T04:03:18;14.10;58.00
4103;DHT22;2065;49.790;9.620;2022-12-24T04:05:46;14.00;58.40
4103;DHT22;2065;49.790;9.620;2022-12-24T04:08:14;14.20;57.90
4103;DHT22;2065;49.790;9.620;2022-12-24T04:10:41;14.20;57.50
4103;DHT22;2065;49.790;9.620;2022-12-24T04:13:08;14.00;57.90
4103;DHT22;2065;49.790;9.620;2022-12-24T04:15:35;14.10;58.30
4103;DHT22;2065;49.790;9.620;2022-12-24T04:18:02;14.20;58.90
4103;DHT22;2065;49.790;9.620;2022-12-24T04:20:29;14.10;59.00
4103;DHT22;2065;49.790;9.620;2022-12-24T04:22:56;14.30;58.20
4103;DHT22;2065;49.790;9.620;2022-12-24T04:25:24;14.30;58.10
4103;DHT22;2065;49.790;9.620;2022-12-24T04:27:51;14.40;58.60
4103;DHT22;2065;49.790;9.620;2022-12-24T04:30:18;14.60;58.20
4103;DHT22;2065;49.790;9.620;2022-12-24T04:32:45;14.60;58.00
4103;DHT22;2065;49.790;9.620;2022-12-24T04:35:12;14.50;57.60
4103;DHT22;2065;49.790;9.620;2022-12-24T04:37:39;14.40;58.20
4103;DHT22;2065;49.790;9.620;2022-12-24T04:40:07;14.40;58.40
4103;DHT22;2065;49.790;9.620;2022-12-24T04:42:36;14.50;58.40
4103;DHT22;2065;49.790;9.620;2022-12-24T04:45:04;14.50;58.20
4103;DHT22;2065;49.790;9.620;2022-12-24T04:47:31;14.70;58.20
4103;DHT22;2065;49.790;9.620;2022-12-24T04:49:58;14.60;58.20
4103;DHT22;2065;49.790;9.620;2022-12-24T04:52:26;14.40;58.10
4103;DHT22;2065;49.790;9.620;2022-12-24T04:54:53;14.30;58.90
4103;DHT22;2065;49.790;9.620;2022-12-24T04:57:20;14.00;59.20
4103;DHT22;2065;49.790;9.620;2022-12-24T04:59:48;14.20;59.40
4103;DHT22;2065;49.790;9.620;2022-12-24T05:02:15;14.40;58.70
4103;DHT22;2065;49.790;9.620;2022-12-24T05:04:42;14.50;58.40
4103;DHT22;2065;49.790;9.620;2022-12-24T05:07:09;14.30;58.90
4103;DHT22;2065;49.790;9.620;2022-12-24T05:09:36;14.20;59.10
4103;DHT22;2065;49.790;9.620;2022-12-24T05:12:03;14.30;58.90
4103;DHT22;2065;49.790;9.620;2022-12-24T05:14:30;14.10;58.50
4103;DHT22;2065;49.790;9.620;2022-12-24T05:16:59;14.10;58.80
4103;DHT22;2065;49.790;9.620;2022-12-24T05:19:26;14.40;58.40
4103;DHT22;2065;49.790;9.620;2022-12-24T05:21:53;14.70;58.20
4103;DHT22;2065;49.790;9.620;2022-12-24T05:24:33;14.90;57.90
4103;DHT22;2065;49.790;9.620;2022-12-24T05:27:18;15.10;57.60
4103;DHT22;2065;49.790;9.620;2022-12-24T05:29:45;14.90;57.40
4103;DHT22;2065;49.790;9.620;2022-12-24T05:32:13;14.80;57.30
4103;DHT22;2065;49.790;9.620;2022-12-24T05:34:40;14.70;57.40
4103;DHT22;2065;49.790;9.620;2022-12-24T05:37:07;14.60;58.00
4103;DHT22;2065;49.790;9.620;2022-12-24T05:39:34;14.50;57.80
4103;DHT22;2065;49.790;9.620;2022-12-24T05:42:01;14.50;58.20
4103;DHT22;2065;49.790;9.620;2022-12-24T05:44:28;14.50;58.80
4103;DHT22;2065;49.790;9.620;2022-12-24T05:46:55;14.40;59.00
4103;DHT22;2065;49.790;9.620;2022-12-24T05:49:24;14.20;59.70
4103;DHT22;2065;49.790;9.620;2022-12-24T05:51:50;14.20;60.20
4103;DHT22;2065;49.790;9.620;2022-12-24T05:54:17;14.30;59.60
4103;DHT22;2065;49.790;9.620;2022-12-24T05:56:44;14.40;59.50
4103;DHT22;2065;49.790;9.620;2022-12-24T05:59:11;14.60;59.20
4103;DHT22;2065;49.790;9.620;2022-12-24T06:01:39;14.70;58.90
4103;DHT22;2065;49.790;9.620;2022-12-24T06:04:10;14.70;59.10
4103;DHT22;2065;49.790;9.620;2022-12-24T06:06:38;14.90;58.70
4103;DHT22;2065;49.790;9.620;2022-12-24T06:09:05;14.50;59.40
4103;DHT22;2065;49.790;9.620;2022-12-24T06:11:32;14.60;59.80
4103;DHT22;2065;49.790;9.620;2022-12-24T06:13:59;14.70;59.40
4103;DHT22;2065;49.790;9.620;2022-12-24T06:16:26;14.80;59.40
4103;DHT22;2065;49.790;9.620;2022-12-24T06:18:53;14.80;59.40
4103;DHT22;2065;49.790;9.620;2022-12-24T06:21:21;14.80;59.40
4103;DHT22;2065;49.790;9.620;2022-12-24T06:23:50;14.70;59.80
4103;DHT22;2065;49.790;9.620;2022-12-24T06:26:19;14.40;60.50
4103;DHT22;2065;49.790;9.620;2022-12-24T06:28:47;14.30;61.10
4103;DHT22;2065;49.790;9.620;2022-12-24T06:31:17;14.10;61.70
4103;DHT22;2065;49.790;9.620;2022-12-24T06:33:44;14.20;62.20
4103;DHT22;2065;49.790;9.620;2022-12-24T06:36:14;14.20;62.00
4103;DHT22;2065;49.790;9.620;2022-12-24T06:38:41;14.00;62.70
4103;DHT22;2065;49.790;9.620;2022-12-24T06:41:09;14.20;62.20
4103;DHT22;2065;49.790;9.620;2022-12-24T06:43:36;14.30;62.10
4103;DHT22;2065;49.790;9.620;2022-12-24T06:46:03;14.40;61.50
4103;DHT22;2065;49.790;9.620;2022-12-24T06:48:30;14.10;62.60
4103;DHT22;2065;49.790;9.620;2022-12-24T06:50:57;14.10;63.30
4103;DHT22;2065;49.790;9.620;2022-12-24T06:53:27;14.10;62.80
4103;DHT22;2065;49.790;9.620;2022-12-24T06:56:00;14.00;63.00
4103;DHT22;2065;49.790;9.620;2022-12-24T06:58:28;14.10;62.40
4103;DHT22;2065;49.790;9.620;2022-12-24T07:00:56;14.20;62.20
4103;DHT22;2065;49.790;9.620;2022-12-24T07:03:23;14.10;62.60
4103;DHT22;2065;49.790;9.620;2022-12-24T07:05:50;14.20;62.20
4103;DHT22;2065;49.790;9.620;2022-12-24T07:08:17;14.30;61.50
4103;DHT22;2065;49.790;9.620;2022-12-24T07:10:43;14.40;61.60
4103;DHT22;2065;49.790;9.620;2022-12-24T07:13:11;14.20;61.50
4103;DHT22;2065;49.790;9.620;2022-12-24T07:15:39;14.40;61.50
4103;DHT22;2065;49.790;9.620;2022-12-24T07:18:06;14.10;61.60
4103;DHT22;2065;49.790;9.620;2022-12-24T07:20:35;14.10;62.40
4103;DHT22;2065;49.790;9.620;2022-12-24T07:23:03;13.90;62.60
4103;DHT22;2065;49.790;9.620;2022-12-24T07:25:30;14.10;62.30
4103;DHT22;2065;49.790;9.620;2022-12-24T07:27:57;14.10;62.00
4103;DHT22;2065;49.790;9.620;2022-12-24T07:30:24;14.10;61.70
4103;DHT22;2065;49.790;9.620;2022-12-24T07:32:52;14.00;61.90
4103;DHT22;2065;49.790;9.620;2022-12-24T07:35:19;14.00;62.30
4103;DHT22;2065;49.790;9.620;2022-12-24T07:37:46;13.90;63.10
4103;DHT22;2065;49.790;9.620;2022-12-24T07:40:13;14.10;62.00
4103;DHT22;2065;49.790;9.620;2022-12-24T07:42:40;14.40;61.70
4103;DHT22;2065;49.790;9.620;2022-12-24T07:45:08;14.40;61.00
4103;DHT22;2065;49.790;9.620;2022-12-24T07:47:35;14.20;61.40
4103;DHT22;2065;49.790;9.620;2022-12-24T07:50:04;14.30;61.20
4103;DHT22;2065;49.790;9.620;2022-12-24T07:52:32;14.40;61.10
4103;DHT22;2065;49.790;9.620;2022-12-24T07:54:58;14.40;60.90
4103;DHT22;2065;49.790;9.620;2022-12-24T07:57:25;14.40;61.00
4103;DHT22;2065;49.790;9.620;2022-12-24T07:59:52;14.20;61.50
4103;DHT22;2065;49.790;9.620;2022-12-24T08:02:19;14.10;61.40
4103;DHT22;2065;49.790;9.620;2022-12-24T08:04:46;14.00;62.20
4103;DHT22;2065;49.790;9.620;2022-12-24T08:07:14;13.90;62.00
4103;DHT22;2065;49.790;9.620;2022-12-24T08:09:41;13.90;62.20
4103;DHT22;2065;49.790;9.620;2022-12-24T08:12:10;14.00;62.20
4103;DHT22;2065;49.790;9.620;2022-12-24T08:14:37;14.10;62.10
4103;DHT22;2065;49.790;9.620;2022-12-24T08:17:04;14.00;61.50
4103;DHT22;2065;49.790;9.620;2022-12-24T08:19:31;14.10;62.00
4103;DHT22;2065;49.790;9.620;2022-12-24T08:21:58;14.00;61.80
4103;DHT22;2065;49.790;9.620;2022-12-24T08:24:26;14.10;62.20
4103;DHT22;2065;49.790;9.620;2022-12-24T08:26:53;14.20;61.50
4103;DHT22;2065;49.790;9.620;2022-12-24T08:29:20;14.20;61.50
4103;DHT22;2065;49.790;9.620;2022-12-24T08:31:47;14.20;60.90
4103;DHT22;2065;49.790;9.620;2022-12-24T08:34:14;14.40;61.50
4103;DHT22;2065;49.790;9.620;2022-12-24T08:36:41;14.20;61.40
4103;DHT22;2065;49.790;9.620;2022-12-24T08:39:09;14.30;61.10
4103;DHT22;2065;49.790;9.620;2022-12-24T08:41:37;14.30;61.00
4103;DHT22;2065;49.790;9.620;2022-12-24T08:44:04;14.40;61.30
4103;DHT22;2065;49.790;9.620;2022-12-24T08:46:31;14.50;60.50
4103;DHT22;2065;49.790;9.620;2022-12-24T08:48:58;14.50;60.30
4103;DHT22;2065;49.790;9.620;2022-12-24T08:51:25;14.50;60.50
4103;DHT22;2065;49.790;9.620;2022-12-24T08:53:52;14.40;60.90
4103;DHT22;2065;49.790;9.620;2022-12-24T08:56:19;14.30;60.90
4103;DHT22;2065;49.790;9.620;2022-12-24T08:58:47;14.60;60.30
4103;DHT22;2065;49.790;9.620;2022-12-24T09:01:16;14.60;60.30
4103;DHT22;2065;49.790;9.620;2022-12-24T09:03:44;14.70;61.00
4103;DHT22;2065;49.790;9.620;2022-12-24T09:06:11;14.60;60.10
4103;DHT22;2065;49.790;9.620;2022-12-24T09:08:38;14.50;60.80
4103;DHT22;2065;49.790;9.620;2022-12-24T09:11:07;14.50;61.60
4103;DHT22;2065;49.790;9.620;2022-12-24T09:13:35;14.70;61.30
4103;DHT22;2065;49.790;9.620;2022-12-24T09:16:03;14.60;61.40
4103;DHT22;2065;49.790;9.620;2022-12-24T09:18:31;14.70;61.40
4103;DHT22;2065;49.790;9.620;2022-12-24T09:20:58;14.60;60.60
4103;DHT22;2065;49.790;9.620;2022-12-24T09:23:26;14.80;60.80
4103;DHT22;2065;49.790;9.620;2022-12-24T09:25:53;14.90;60.20
4103;DHT22;2065;49.790;9.620;2022-12-24T09:28:20;14.70;61.10
4103;DHT22;2065;49.790;9.620;2022-12-24T09:30:56;14.70;61.60
4103;DHT22;2065;49.790;9.620;2022-12-24T09:33:25;14.80;60.60
4103;DHT22;2065;49.790;9.620;2022-12-24T09:35:52;14.90;60.50
4103;DHT22;2065;49.790;9.620;2022-12-24T09:38:19;14.90;60.00
4103;DHT22;2065;49.790;9.620;2022-12-24T09:40:47;15.00;59.40
4103;DHT22;2065;49.790;9.620;2022-12-24T09:43:17;14.90;59.70
4103;DHT22;2065;49.790;9.620;2022-12-24T09:45:49;14.90;60.00
4103;DHT22;2065;49.790;9.620;2022-12-24T09:48:22;14.80;60.00
4103;DHT22;2065;49.790;9.620;2022-12-24T09:50:55;15.00;60.00
4103;DHT22;2065;49.790;9.620;2022-12-24T09:53:27;15.10;59.50
4103;DHT22;2065;49.790;9.620;2022-12-24T09:55:57;15.10;59.50
4103;DHT22;2065;49.790;9.620;2022-12-24T09:58:28;15.20;59.70
4103;DHT22;2065;49.790;9.620;2022-12-24T10:00:56;15.30;59.70
4103;DHT22;2065;49.790;9.620;2022-12-24T10:03:23;15.40;59.50
4103;DHT22;2065;49.790;9.620;2022-12-24T10:06:03;15.30;59.30
4103;DHT22;2065;49.790;9.620;2022-12-24T10:08:37;15.10;59.40
4103;DHT22;2065;49.790;9.620;2022-12-24T10:11:13;15.20;59.60
4103;DHT22;2065;49.790;9.620;2022-12-24T10:13:53;15.20;59.20
4103;DHT22;2065;49.790;9.620;2022-12-24T10:16:28;15.30;59.40
4103;DHT22;2065;49.790;9.620;2022-12-24T10:19:03;15.10;59.70
4103;DHT22;2065;49.790;9.620;2022-12-24T10:21:40;15.10;59.00
4103;DHT22;2065;49.790;9.620;2022-12-24T10:24:14;15.00;59.20
4103;DHT22;2065;49.790;9.620;2022-12-24T10:26:44;14.90;59.70
4103;DHT22;2065;49.790;9.620;2022-12-24T10:29:14;14.90;59.40
4103;DHT22;2065;49.790;9.620;2022-12-24T10:31:51;15.10;59.20
4103;DHT22;2065;49.790;9.620;2022-12-24T10:34:21;15.20;59.10
4103;DHT22;2065;49.790;9.620;2022-12-24T10:36:50;15.30;58.60
4103;DHT22;2065;49.790;9.620;2022-12-24T10:39:19;15.10;58.70
4103;DHT22;2065;49.790;9.620;2022-12-24T10:41:47;15.30;59.00
4103;DHT22;2065;49.790;9.620;2022-12-24T10:44:17;15.40;58.10
4103;DHT22;2065;49.790;9.620;2022-12-24T10:46:46;15.50;58.00
4103;DHT22;2065;49.790;9.620;2022-12-24T10:49:14;15.30;58.20
4103;DHT22;2065;49.790;9.620;2022-12-24T10:51:47;15.30;58.20
4103;DHT22;2065;49.790;9.620;2022-12-24T10:54:18;15.20;58.10
4103;DHT22;2065;49.790;9.620;2022-12-24T10:56:48;15.00;58.60
4103;DHT22;2065;49.790;9.620;2022-12-24T10:59:25;15.00;59.00
4103;DHT22;2065;49.790;9.620;2022-12-24T11:01:54;15.20;58.50
4103;DHT22;2065;49.790;9.620;2022-12-24T11:04:23;15.10;58.60
4103;DHT22;2065;49.790;9.620;2022-12-24T11:06:52;15.10;58.60
4103;DHT22;2065;49.790;9.620;2022-12-24T11:09:22;15.10;58.80
4103;DHT22;2065;49.790;9.620;2022-12-24T11:11:50;15.00;58.50
4103;DHT22;2065;49.790;9.620;2022-12-24T11:14:18;15.00;58.80
4103;DHT22;2065;49.790;9.620;2022-12-24T11:16:50;15.10;59.00
4103;DHT22;2065;49.790;9.620;2022-12-24T11:19:19;15.10;58.60
4103;DHT22;2065;49.790;9.620;2022-12-24T11:21:58;15.30;58.60
4103;DHT22;2065;49.790;9.620;2022-12-24T11:24:29;15.30;58.00
4103;DHT22;2065;49.790;9.620;2022-12-24T11:27:27;15.40;57.50
4103;DHT22;2065;49.790;9.620;2022-12-24T11:30:24;15.50;57.60
4103;DHT22;2065;49.790;9.620;2022-12-24T11:33:15;15.50;57.10
4103;DHT22;2065;49.790;9.620;2022-12-24T11:35:46;15.60;56.80
4103;DHT22;2065;49.790;9.620;2022-12-24T11:38:19;15.80;56.50
4103;DHT22;2065;49.790;9.620;2022-12-24T11:40:49;15.90;56.20
4103;DHT22;2065;49.790;9.620;2022-12-24T11:43:22;16.00;55.80
4103;DHT22;2065;49.790;9.620;2022-12-24T11:45:51;16.00;55.90
4103;DHT22;2065;49.790;9.620;2022-12-24T11:48:25;16.10;55.30
4103;DHT22;2065;49.790;9.620;2022-12-24T11:50:57;16.00;55.20
4103;DHT22;2065;49.790;9.620;2022-12-24T11:53:30;15.90;55.20
4103;DHT22;2065;49.790;9.620;2022-12-24T11:56:06;16.10;55.10
4103;DHT22;2065;49.790;9.620;2022-12-24T11:58:38;16.10;55.20
4103;DHT22;2065;49.790;9.620;2022-12-24T12:01:15;16.20;55.10
4103;DHT22;2065;49.790;9.620;2022-12-24T12:03:46;16.30;55.50
4103;DHT22;2065;49.790;9.620;2022-12-24T12:06:26;16.40;55.60
4103;DHT22;2065;49.790;9.620;2022-12-24T12:08:56;16.50;55.40
4103;DHT22;2065;49.790;9.620;2022-12-24T12:11:26;16.40;55.00
4103;DHT22;2065;49.790;9.620;2022-12-24T12:13:55;16.50;55.60
4103;DHT22;2065;49.790;9.620;2022-12-24T12:16:27;16.60;55.50
4103;DHT22;2065;49.790;9.620;2022-12-24T12:18:59;16.40;55.00
4103;DHT22;2065;49.790;9.620;2022-12-24T12:21:34;16.40;55.30
4103;DHT22;2065;49.790;9.620;2022-12-24T12:24:06;16.30;55.70
4103;DHT22;2065;49.790;9.620;2022-12-24T12:26:40;16.40;55.50
4103;DHT22;2065;49.790;9.620;2022-12-24T12:29:17;16.30;55.30
4103;DHT22;2065;49.790;9.620;2022-12-24T12:31:53;16.10;56.10
4103;DHT22;2065;49.790;9.620;2022-12-24T12:34:23;16.10;56.60
4103;DHT22;2065;49.790;9.620;2022-12-24T12:36:55;16.00;56.60
4103;DHT22;2065;49.790;9.620;2022-12-24T12:39:23;16.20;56.10
4103;DHT22;2065;49.790;9.620;2022-12-24T12:41:57;16.20;55.90
4103;DHT22;2065;49.790;9.620;2022-12-24T12:44:39;16.10;56.00
4103;DHT22;2065;49.790;9.620;2022-12-24T12:50:04;16.20;56.20
4103;DHT22;2065;49.790;9.620;2022-12-24T12:52:49;16.30;55.70
4103;DHT22;2065;49.790;9.620;2022-12-24T12:55:29;16.30;55.80
4103;DHT22;2065;49.790;9.620;2022-12-24T12:58:03;16.20;55.60
4103;DHT22;2065;49.790;9.620;2022-12-24T13:00:36;16.10;56.30
4103;DHT22;2065;49.790;9.620;2022-12-24T13:03:47;15.90;57.00
4103;DHT22;2065;49.790;9.620;2022-12-24T13:06:44;15.60;58.80
4103;DHT22;2065;49.790;9.620;2022-12-24T13:09:30;15.50;61.00
4103;DHT22;2065;49.790;9.620;2022-12-24T13:12:10;15.40;62.60
4103;DHT22;2065;49.790;9.620;2022-12-24T13:14:54;15.40;63.10
4103;DHT22;2065;49.790;9.620;2022-12-24T13:17:50;15.40;63.20
4103;DHT22;2065;49.790;9.620;2022-12-24T13:20:24;15.70;63.10
4103;DHT22;2065;49.790;9.620;2022-12-24T13:22:57;15.90;62.80
4103;DHT22;2065;49.790;9.620;2022-12-24T13:25:29;16.10;62.60
4103;DHT22;2065;49.790;9.620;2022-12-24T13:27:56;16.20;62.40
4103;DHT22;2065;49.790;9.620;2022-12-24T13:30:38;16.20;61.60
4103;DHT22;2065;49.790;9.620;2022-12-24T13:33:09;16.10;61.70
4103;DHT22;2065;49.790;9.620;2022-12-24T13:35:58;16.20;61.80
4103;DHT22;2065;49.790;9.620;2022-12-24T13:38:39;16.20;61.70
4103;DHT22;2065;49.790;9.620;2022-12-24T13:44:27;16.20;61.00
4103;DHT22;2065;49.790;9.620;2022-12-24T13:47:01;16.30;61.50
4103;DHT22;2065;49.790;9.620;2022-12-24T13:49:32;16.20;61.50
4103;DHT22;2065;49.790;9.620;2022-12-24T13:52:21;16.20;61.40
4103;DHT22;2065;49.790;9.620;2022-12-24T13:55:01;16.20;61.20
4103;DHT22;2065;49.790;9.620;2022-12-24T13:57:40;16.30;61.60
4103;DHT22;2065;49.790;9.620;2022-12-24T14:00:25;16.30;61.60
4103;DHT22;2065;49.790;9.620;2022-12-24T14:02:57;16.30;61.10
4103;DHT22;2065;49.790;9.620;2022-12-24T14:05:31;16.20;60.00
4103;DHT22;2065;49.790;9.620;2022-12-24T14:08:01;16.10;60.00
4103;DHT22;2065;49.790;9.620;2022-12-24T14:10:37;16.20;61.10
4103;DHT22;2065;49.790;9.620;2022-12-24T14:13:05;16.00;60.10
4103;DHT22;2065;49.790;9.620;2022-12-24T14:18:30;15.90;60.30
4103;DHT22;2065;49.790;9.620;2022-12-24T14:21:00;16.00;60.10
4103;DHT22;2065;49.790;9.620;2022-12-24T14:23:41;15.70;60.40
4103;DHT22;2065;49.790;9.620;2022-12-24T14:26:14;15.60;61.00
4103;DHT22;2065;49.790;9.620;2022-12-24T14:28:46;15.40;61.80
4103;DHT22;2065;49.790;9.620;2022-12-24T14:31:17;15.00;62.50
4103;DHT22;2065;49.790;9.620;2022-12-24T14:33:46;15.10;62.10
4103;DHT22;2065;49.790;9.620;2022-12-24T14:36:17;15.30;61.90
4103;DHT22;2065;49.790;9.620;2022-12-24T14:38:45;15.30;61.90
4103;DHT22;2065;49.790;9.620;2022-12-24T14:41:38;15.40;61.90
4103;DHT22;2065;49.790;9.620;2022-12-24T14:44:13;15.40;61.90
4103;DHT22;2065;49.790;9.620;2022-12-24T14:46:47;15.50;61.30
4103;DHT22;2065;49.790;9.620;2022-12-24T14:49:27;15.40;61.30
4103;DHT22;2065;49.790;9.620;2022-12-24T14:52:05;15.50;61.00
4103;DHT22;2065;49.790;9.620;2022-12-24T14:54:37;15.40;61.00
4103;DHT22;2065;49.790;9.620;2022-12-24T14:57:21;15.30;60.90
4103;DHT22;2065;49.790;9.620;2022-12-24T14:59:51;15.40;61.00
4103;DHT22;2065;49.790;9.620;2022-12-24T15:02:39;15.40;60.60
4103;DHT22;2065;49.790;9.620;2022-12-24T15:05:14;15.50;60.60
4103;DHT22;2065;49.790;9.620;2022-12-24T15:07:45;15.40;60.70
4103;DHT22;2065;49.790;9.620;2022-12-24T15:10:28;15.30;60.80
4103;DHT22;2065;49.790;9.620;2022-12-24T15:12:58;15.30;61.00
4103;DHT22;2065;49.790;9.620;2022-12-24T15:15:27;15.00;61.20
4103;DHT22;2065;49.790;9.620;2022-12-24T15:17:55;14.90;61.90
4103;DHT22;2065;49.790;9.620;2022-12-24T15:20:26;14.80;62.30
4103;DHT22;2065;49.790;9.620;2022-12-24T15:22:56;14.50;63.00
4103;DHT22;2065;49.790;9.620;2022-12-24T15:25:25;14.30;64.10
4103;DHT22;2065;49.790;9.620;2022-12-24T15:27:52;14.20;64.20
4103;DHT22;2065;49.790;9.620;2022-12-24T15:30:21;14.10;64.80
4103;DHT22;2065;49.790;9.620;2022-12-24T15:32:49;14.20;65.10
4103;DHT22;2065;49.790;9.620;2022-12-24T15:38:30;14.20;64.40
4103;DHT22;2065;49.790;9.620;2022-12-24T15:40:58;14.30;63.70
4103;DHT22;2065;49.790;9.620;2022-12-24T15:43:26;14.10;63.90
4103;DHT22;2065;49.790;9.620;2022-12-24T15:45:53;14.10;64.30
4103;DHT22;2065;49.790;9.620;2022-12-24T15:48:23;14.20;64.00
4103;DHT22;2065;49.790;9.620;2022-12-24T15:50:54;14.30;63.80
4103;DHT22;2065;49.790;9.620;2022-12-24T15:53:26;14.40;63.10
4103;DHT22;2065;49.790;9.620;2022-12-24T15:56:03;14.60;62.80
4103;DHT22;2065;49.790;9.620;2022-12-24T15:58:31;14.70;62.40
4103;DHT22;2065;49.790;9.620;2022-12-24T16:01:04;14.90;61.90
4103;DHT22;2065;49.790;9.620;2022-12-24T16:03:32;14.80;61.80
4103;DHT22;2065;49.790;9.620;2022-12-24T16:06:02;15.00;61.50
4103;DHT22;2065;49.790;9.620;2022-12-24T16:08:31;15.10;61.00
4103;DHT22;2065;49.790;9.620;2022-12-24T16:11:15;15.20;60.50
4103;DHT22;2065;49.790;9.620;2022-12-24T16:13:59;15.20;60.10
4103;DHT22;2065;49.790;9.620;2022-12-24T16:16:32;14.90;60.30
4103;DHT22;2065;49.790;9.620;2022-12-24T16:19:00;14.70;60.80
4103;DHT22;2065;49.790;9.620;2022-12-24T16:21:31;14.70;60.70
4103;DHT22;2065;49.790;9.620;2022-12-24T16:24:04;14.70;60.80
4103;DHT22;2065;49.790;9.620;2022-12-24T16:26:32;14.70;60.80
4103;DHT22;2065;49.790;9.620;2022-12-24T16:28:59;14.50;60.70
4103;DHT22;2065;49.790;9.620;2022-12-24T16:31:31;14.50;61.00
4103;DHT22;2065;49.790;9.620;2022-12-24T16:34:00;14.40;61.40
4103;DHT22;2065;49.790;9.620;2022-12-24T16:36:30;14.20;61.80
4103;DHT22;2065;49.790;9.620;2022-12-24T16:38:57;14.00;62.70